sensor_id;sensor_type;location;lat;lon;timestamp;pressure;altitude;pressure_sealevel;temperature;humidity
50484;BME280;36409;52.168;20.878;2022-07-03T00:00:08;101188.72;;;17.68;73.58
50484;BME280;36409;52.168;20.878;2022-07-03T00:02:59;101197.48;;;17.68;74.00
50484;BME280;36409;52.168;20.878;2022-07-03T00:05:28;101189.56;;;17.68;73.78
50484;BME280;36409;52.168;20.878;2022-07-03T00:07:58;101192.32;;;17.65;73.69
50484;BME280;36409;52.168;20.878;2022-07-03T00:10:27;101196.78;;;17.63;73.62
50484;BME280;36409;52.168;20.878;2022-07-03T00:12:55;101191.64;;;17.58;73.69
50484;BME280;36409;52.168;20.878;2022-07-03T00:15:26;101190.00;;;17.54;73.63
50484;BME280;36409;52.168;20.878;2022-07-03T00:17:55;101194.45;;;17.52;73.58
50484;BME280;36409;52.168;20.878;2022-07-03T00:20:25;101187.58;;;17.47;73.41
50484;BME280;36409;52.168;20.878;2022-07-03T00:22:56;101186.81;;;17.43;73.85
50484;BME280;36409;52.168;20.878;2022-07-03T00:25:28;101191.33;;;17.39;73.56
50484;BME280;36409;52.168;20.878;2022-07-03T00:28:01;101196.69;;;17.36;73.58
50484;BME280;36409;52.168;20.878;2022-07-03T00:30:30;101188.83;;;17.35;74.13
50484;BME280;36409;52.168;20.878;2022-07-03T00:33:00;101193.28;;;17.33;74.02
50484;BME280;36409;52.168;20.878;2022-07-03T00:35:32;101195.06;;;17.32;74.33
50484;BME280;36409;52.168;20.878;2022-07-03T00:38:01;101194.24;;;17.30;73.92
50484;BME280;36409;52.168;20.878;2022-07-03T00:40:31;101194.32;;;17.27;74.01
50484;BME280;36409;52.168;20.878;2022-07-03T00:43:00;101189.13;;;17.24;73.83
50484;BME280;36409;52.168;20.878;2022-07-03T00:45:33;101188.36;;;17.20;73.74
50484;BME280;36409;52.168;20.878;2022-07-03T00:48:03;101190.23;;;17.17;73.86
50484;BME280;36409;52.168;20.878;2022-07-03T00:50:35;101181.48;;;17.14;73.92
50484;BME280;36409;52.168;20.878;2022-07-03T00:53:06;101183.30;;;17.12;73.90
50484;BME280;36409;52.168;20.878;2022-07-03T00:55:36;101185.09;;;17.12;74.01
50484;BME280;36409;52.168;20.878;2022-07-03T00:58:05;101184.20;;;17.11;74.17
50484;BME280;36409;52.168;20.878;2022-07-03T01:00:38;101181.56;;;17.11;74.60
50484;BME280;36409;52.168;20.878;2022-07-03T01:03:11;101176.29;;;17.11;74.16
50484;BME280;36409;52.168;20.878;2022-07-03T01:05:43;101178.08;;;17.11;74.16
50484;BME280;36409;52.168;20.878;2022-07-03T01:08:20;101166.70;;;17.09;74.48
50484;BME280;36409;52.168;20.878;2022-07-03T01:10:57;101169.34;;;17.09;74.64
50484;BME280;36409;52.168;20.878;2022-07-03T01:13:40;101167.66;;;17.06;74.50
50484;BME280;36409;52.168;20.878;2022-07-03T01:16:18;101162.45;;;17.05;74.78
50484;BME280;36409;52.168;20.878;2022-07-03T01:18:53;101156.34;;;17.03;74.48
50484;BME280;36409;52.168;20.878;2022-07-03T01:21:50;101159.91;;;17.00;74.64
50484;BME280;36409;52.168;20.878;2022-07-03T01:24:42;101157.38;;;16.97;74.12
50484;BME280;36409;52.168;20.878;2022-07-03T01:27:18;101153.06;;;16.93;74.17
50484;BME280;36409;52.168;20.878;2022-07-03T01:29:55;101148.80;;;16.89;74.23
50484;BME280;36409;52.168;20.878;2022-07-03T01:32:31;101148.87;;;16.86;74.42
50484;BME280;36409;52.168;20.878;2022-07-03T01:35:02;101151.54;;;16.84;74.70
50484;BME280;36409;52.168;20.878;2022-07-03T01:37:34;101148.13;;;16.80;74.61
50484;BME280;36409;52.168;20.878;2022-07-03T01:40:07;101147.41;;;16.75;74.29
50484;BME280;36409;52.168;20.878;2022-07-03T01:42:37;101151.03;;;16.71;74.80
50484;BME280;36409;52.168;20.878;2022-07-03T01:45:10;101144.09;;;16.67;74.69
50484;BME280;36409;52.168;20.878;2022-07-03T01:47:41;101141.64;;;16.61;74.69
50484;BME280;36409;52.168;20.878;2022-07-03T01:50:13;101143.45;;;16.59;74.69
50484;BME280;36409;52.168;20.878;2022-07-03T01:52:45;101145.23;;;16.58;74.95
50484;BME280;36409;52.168;20.878;2022-07-03T01:55:17;101138.31;;;16.54;74.80
50484;BME280;36409;52.168;20.878;2022-07-03T01:57:49;101139.27;;;16.51;74.40
50484;BME280;36409;52.168;20.878;2022-07-03T02:00:20;101129.75;;;16.46;74.41
50484;BME280;36409;52.168;20.878;2022-07-03T02:02:59;101131.63;;;16.41;74.56
50484;BME280;36409;52.168;20.878;2022-07-03T02:05:41;101138.70;;;16.39;74.69
50484;BME280;36409;52.168;20.878;2022-07-03T02:08:25;101140.48;;;16.38;74.90
50484;BME280;36409;52.168;20.878;2022-07-03T02:11:09;101137.91;;;16.36;74.94
50484;BME280;36409;52.168;20.878;2022-07-03T02:13:48;101133.56;;;16.34;75.24
50484;BME280;36409;52.168;20.878;2022-07-03T02:16:20;101130.97;;;16.32;74.81
50484;BME280;36409;52.168;20.878;2022-07-03T02:19:04;101136.24;;;16.32;75.39
50484;BME280;36409;52.168;20.878;2022-07-03T02:21:40;101144.14;;;16.32;74.82
50484;BME280;36409;52.168;20.878;2022-07-03T02:24:17;101137.20;;;16.30;74.98
50484;BME280;36409;52.168;20.878;2022-07-03T02:26:57;101139.83;;;16.30;75.49
50484;BME280;36409;52.168;20.878;2022-07-03T02:29:34;101140.73;;;16.29;75.68
50484;BME280;36409;52.168;20.878;2022-07-03T02:32:12;101136.36;;;16.28;74.86
50484;BME280;36409;52.168;20.878;2022-07-03T02:34:47;101139.00;;;16.28;75.20
50484;BME280;36409;52.168;20.878;2022-07-03T02:37:19;101139.00;;;16.28;75.50
50484;BME280;36409;52.168;20.878;2022-07-03T02:39:52;101147.75;;;16.28;75.03
50484;BME280;36409;52.168;20.878;2022-07-03T02:42:30;101147.75;;;16.28;75.04
50484;BME280;36409;52.168;20.878;2022-07-03T02:45:03;101146.83;;;16.31;75.24
50484;BME280;36409;52.168;20.878;2022-07-03T02:47:40;101147.68;;;16.31;75.25
50484;BME280;36409;52.168;20.878;2022-07-03T02:50:16;101144.98;;;16.34;75.43
50484;BME280;36409;52.168;20.878;2022-07-03T02:52:56;101134.44;;;16.34;75.54
50484;BME280;36409;52.168;20.878;2022-07-03T02:55:39;101146.66;;;16.37;75.31
50484;BME280;36409;52.168;20.878;2022-07-03T02:58:27;101143.97;;;16.39;75.34
50484;BME280;36409;52.168;20.878;2022-07-03T03:01:08;101140.44;;;16.40;75.30
50484;BME280;36409;52.168;20.878;2022-07-03T03:03:38;101139.53;;;16.41;75.87
50484;BME280;36409;52.168;20.878;2022-07-03T03:06:12;101130.70;;;16.43;75.44
50484;BME280;36409;52.168;20.878;2022-07-03T03:08:48;101138.61;;;16.43;75.97
50484;BME280;36409;52.168;20.878;2022-07-03T03:11:24;101135.05;;;16.44;75.69
50484;BME280;36409;52.168;20.878;2022-07-03T03:13:59;101133.23;;;16.46;75.91
50484;BME280;36409;52.168;20.878;2022-07-03T03:16:28;101134.02;;;16.50;75.86
50484;BME280;36409;52.168;20.878;2022-07-03T03:19:00;101131.36;;;16.51;75.47
50484;BME280;36409;52.168;20.878;2022-07-03T03:21:32;101129.55;;;16.54;75.75
50484;BME280;36409;52.168;20.878;2022-07-03T03:24:10;101124.16;;;16.58;75.41
50484;BME280;36409;52.168;20.878;2022-07-03T03:26:41;101122.34;;;16.60;75.66
50484;BME280;36409;52.168;20.878;2022-07-03T03:29:15;101116.12;;;16.63;75.59
50484;BME280;36409;52.168;20.878;2022-07-03T03:31:44;101116.05;;;16.66;75.58
50484;BME280;36409;52.168;20.878;2022-07-03T03:34:13;101118.67;;;16.66;75.21
50484;BME280;36409;52.168;20.878;2022-07-03T03:36:42;101113.41;;;16.66;75.50
50484;BME280;36409;52.168;20.878;2022-07-03T03:39:13;101110.77;;;16.66;75.39
50484;BME280;36409;52.168;20.878;2022-07-03T03:41:41;101112.47;;;16.67;75.05
50484;BME280;36409;52.168;20.878;2022-07-03T03:44:13;101107.20;;;16.67;75.14
50484;BME280;36409;52.168;20.878;2022-07-03T03:46:42;101101.98;;;16.65;75.16
50484;BME280;36409;52.168;20.878;2022-07-03T03:49:12;101108.14;;;16.66;75.21
50484;BME280;36409;52.168;20.878;2022-07-03T03:51:42;101095.81;;;16.66;74.60
50484;BME280;36409;52.168;20.878;2022-07-03T03:54:12;101105.45;;;16.67;74.75
50484;BME280;36409;52.168;20.878;2022-07-03T03:56:41;101107.13;;;16.70;74.87
50484;BME280;36409;52.168;20.878;2022-07-03T03:59:14;101107.13;;;16.70;74.65
50484;BME280;36409;52.168;20.878;2022-07-03T04:01:43;101115.86;;;16.72;74.93
50484;BME280;36409;52.168;20.878;2022-07-03T04:04:14;101110.51;;;16.75;74.93
50484;BME280;36409;52.168;20.878;2022-07-03T04:06:46;101111.34;;;16.77;74.50
50484;BME280;36409;52.168;20.878;2022-07-03T04:09:14;101104.14;;;16.82;74.78
50484;BME280;36409;52.168;20.878;2022-07-03T04:11:43;101104.06;;;16.86;74.77
50484;BME280;36409;52.168;20.878;2022-07-03T04:14:12;101105.73;;;16.88;74.26
50484;BME280;36409;52.168;20.878;2022-07-03T04:16:41;101106.51;;;16.92;74.27
50484;BME280;36409;52.168;20.878;2022-07-03T04:19:10;101098.55;;;16.95;74.61
50484;BME280;36409;52.168;20.878;2022-07-03T04:21:39;101101.05;;;17.00;74.70
50484;BME280;36409;52.168;20.878;2022-07-03T04:24:08;101104.45;;;17.03;74.22
50484;BME280;36409;52.168;20.878;2022-07-03T04:26:37;101099.92;;;17.08;74.06
50484;BME280;36409;52.168;20.878;2022-07-03T04:29:06;101103.27;;;17.13;74.12
50484;BME280;36409;52.168;20.878;2022-07-03T04:31:44;101104.01;;;17.19;74.35
50484;BME280;36409;52.168;20.878;2022-07-03T04:34:12;101099.44;;;17.24;74.25
50484;BME280;36409;52.168;20.878;2022-07-03T04:36:41;101098.45;;;17.28;74.12
50484;BME280;36409;52.168;20.878;2022-07-03T04:39:10;101098.24;;;17.34;74.03
50484;BME280;36409;52.168;20.878;2022-07-03T04:41:39;101104.20;;;17.41;73.72
50484;BME280;36409;52.168;20.878;2022-07-03T04:44:20;101100.56;;;17.45;73.52
50484;BME280;36409;52.168;20.878;2022-07-03T04:46:48;101088.95;;;17.51;73.50
50484;BME280;36409;52.168;20.878;2022-07-03T04:49:17;101090.59;;;17.55;73.49
50484;BME280;36409;52.168;20.878;2022-07-03T04:51:46;101086.02;;;17.60;73.38
50484;BME280;36409;52.168;20.878;2022-07-03T04:54:15;101083.28;;;17.63;72.97
50484;BME280;36409;52.168;20.878;2022-07-03T04:56:43;101091.89;;;17.68;72.99
50484;BME280;36409;52.168;20.878;2022-07-03T04:59:12;101089.08;;;17.74;72.99
50484;BME280;36409;52.168;20.878;2022-07-03T05:01:41;101089.67;;;17.83;73.05
50484;BME280;36409;52.168;20.878;2022-07-03T05:04:10;101087.63;;;17.91;72.90
50484;BME280;36409;52.168;20.878;2022-07-03T05:06:39;101096.25;;;17.98;72.70
50484;BME280;36409;52.168;20.878;2022-07-03T05:09:09;101103.98;;;18.04;72.19
50484;BME280;36409;52.168;20.878;2022-07-03T05:11:38;101096.75;;;18.09;72.66
50484;BME280;36409;52.168;20.878;2022-07-03T05:14:15;101097.38;;;18.17;72.09
50484;BME280;36409;52.168;20.878;2022-07-03T05:16:45;101102.33;;;18.27;72.62
50484;BME280;36409;52.168;20.878;2022-07-03T05:19:14;101100.44;;;18.30;71.77
50484;BME280;36409;52.168;20.878;2022-07-03T05:21:42;101095.80;;;18.37;71.50
50484;BME280;36409;52.168;20.878;2022-07-03T05:24:11;101100.82;;;18.45;71.47
50484;BME280;36409;52.168;20.878;2022-07-03T05:26:40;101098.76;;;18.53;71.29
50484;BME280;36409;52.168;20.878;2022-07-03T05:29:13;101096.52;;;18.66;71.42
50484;BME280;36409;52.168;20.878;2022-07-03T05:31:41;101086.38;;;18.79;71.37
50484;BME280;36409;52.168;20.878;2022-07-03T05:34:10;101090.61;;;18.83;70.44
50484;BME280;36409;52.168;20.878;2022-07-03T05:36:39;101081.72;;;18.86;70.70
50484;BME280;36409;52.168;20.878;2022-07-03T05:39:08;101087.61;;;18.92;70.48
50484;BME280;36409;52.168;20.878;2022-07-03T05:41:56;101085.81;;;18.94;70.04
50484;BME280;36409;52.168;20.878;2022-07-03T05:44:27;101090.00;;;19.00;69.26
50484;BME280;36409;52.168;20.878;2022-07-03T05:46:56;101088.80;;;19.09;69.23
50484;BME280;36409;52.168;20.878;2022-07-03T05:49:27;101094.65;;;19.17;68.98
50484;BME280;36409;52.168;20.878;2022-07-03T05:51:56;101093.66;;;19.20;68.90
50484;BME280;36409;52.168;20.878;2022-07-03T05:54:25;101095.34;;;19.22;68.50
50484;BME280;36409;52.168;20.878;2022-07-03T05:56:54;101093.36;;;19.27;68.00
50484;BME280;36409;52.168;20.878;2022-07-03T05:59:23;101093.98;;;19.34;68.00
50484;BME280;36409;52.168;20.878;2022-07-03T06:01:52;101095.30;;;19.46;67.98
50484;BME280;36409;52.168;20.878;2022-07-03T06:04:21;101094.73;;;19.60;67.97
50484;BME280;36409;52.168;20.878;2022-07-03T06:06:49;101090.59;;;19.75;67.54
50484;BME280;36409;52.168;20.878;2022-07-03T06:09:18;101098.23;;;20.26;67.21
50484;BME280;36409;52.168;20.878;2022-07-03T06:11:47;101095.66;;;21.79;64.75
50484;BME280;36409;52.168;20.878;2022-07-03T06:14:16;101105.02;;;23.70;62.05
50484;BME280;36409;52.168;20.878;2022-07-03T06:16:45;101097.16;;;24.73;60.27
50484;BME280;36409;52.168;20.878;2022-07-03T06:19:14;101091.59;;;24.32;61.49
50484;BME280;36409;52.168;20.878;2022-07-03T06:21:43;101095.66;;;24.09;60.84
50484;BME280;36409;52.168;20.878;2022-07-03T06:24:13;101107.95;;;23.65;61.21
50484;BME280;36409;52.168;20.878;2022-07-03T06:26:41;101097.77;;;23.25;60.70
50484;BME280;36409;52.168;20.878;2022-07-03T06:29:13;101098.80;;;23.39;60.34
50484;BME280;36409;52.168;20.878;2022-07-03T06:31:42;101098.25;;;23.16;60.12
50484;BME280;36409;52.168;20.878;2022-07-03T06:34:10;101103.27;;;22.73;61.05
50484;BME280;36409;52.168;20.878;2022-07-03T06:36:39;101098.93;;;22.36;60.88
50484;BME280;36409;52.168;20.878;2022-07-03T06:39:08;101108.23;;;21.93;60.09
50484;BME280;36409;52.168;20.878;2022-07-03T06:41:37;101108.13;;;21.59;60.53
50484;BME280;36409;52.168;20.878;2022-07-03T06:44:06;101105.39;;;21.41;60.79
50484;BME280;36409;52.168;20.878;2022-07-03T06:46:39;101102.73;;;21.41;60.63
50484;BME280;36409;52.168;20.878;2022-07-03T06:49:08;101102.11;;;21.36;60.36
50484;BME280;36409;52.168;20.878;2022-07-03T06:51:37;101100.26;;;21.19;59.99
50484;BME280;36409;52.168;20.878;2022-07-03T06:54:07;101103.75;;;21.01;59.94
50484;BME280;36409;52.168;20.878;2022-07-03T06:56:36;101102.55;;;20.89;59.73
50484;BME280;36409;52.168;20.878;2022-07-03T06:59:05;101090.63;;;20.78;59.88
50484;BME280;36409;52.168;20.878;2022-07-03T07:01:39;101090.81;;;20.74;59.57
50484;BME280;36409;52.168;20.878;2022-07-03T07:04:08;101071.75;;;20.65;59.65
50484;BME280;36409;52.168;20.878;2022-07-03T07:06:37;101073.39;;;20.68;59.51
50484;BME280;36409;52.168;20.878;2022-07-03T07:09:09;101072.78;;;20.82;59.04
50484;BME280;36409;52.168;20.878;2022-07-03T07:11:37;101066.33;;;21.26;58.83
50484;BME280;36409;52.168;20.878;2022-07-03T07:14:09;101056.73;;;21.60;58.13
50484;BME280;36409;52.168;20.878;2022-07-03T07:16:41;101055.64;;;22.68;57.75
50484;BME280;36409;52.168;20.878;2022-07-03T07:19:13;101058.09;;;23.21;56.07
50484;BME280;36409;52.168;20.878;2022-07-03T07:21:42;101056.72;;;23.29;56.31
50484;BME280;36409;52.168;20.878;2022-07-03T07:24:10;101047.69;;;23.32;56.11
50484;BME280;36409;52.168;20.878;2022-07-03T07:26:39;101059.42;;;23.44;55.67
50484;BME280;36409;52.168;20.878;2022-07-03T07:29:13;101051.19;;;23.33;55.66
50484;BME280;36409;52.168;20.878;2022-07-03T07:31:43;101047.17;;;23.25;55.99
50484;BME280;36409;52.168;20.878;2022-07-03T07:34:17;101049.14;;;23.06;55.70
50484;BME280;36409;52.168;20.878;2022-07-03T07:36:53;101048.42;;;22.86;55.63
50484;BME280;36409;52.168;20.878;2022-07-03T07:39:28;101048.91;;;22.61;55.85
50484;BME280;36409;52.168;20.878;2022-07-03T07:41:59;101045.38;;;22.44;55.90
50484;BME280;36409;52.168;20.878;2022-07-03T07:44:28;101044.97;;;22.34;56.03
50484;BME280;36409;52.168;20.878;2022-07-03T07:47:00;101039.90;;;22.30;56.67
50484;BME280;36409;52.168;20.878;2022-07-03T07:49:31;101043.20;;;22.17;56.49
50484;BME280;36409;52.168;20.878;2022-07-03T07:52:01;101043.69;;;22.08;56.22
50484;BME280;36409;52.168;20.878;2022-07-03T07:54:30;101042.05;;;22.05;56.14
50484;BME280;36409;52.168;20.878;2022-07-03T07:57:00;101043.23;;;22.00;56.14
50484;BME280;36409;52.168;20.878;2022-07-03T07:59:32;101041.33;;;22.02;56.36
50484;BME280;36409;52.168;20.878;2022-07-03T08:02:06;101035.95;;;22.03;56.38
50484;BME280;36409;52.168;20.878;2022-07-03T08:04:53;101034.69;;;22.11;56.11
50484;BME280;36409;52.168;20.878;2022-07-03T08:07:41;101037.04;;;22.17;55.75
50484;BME280;36409;52.168;20.878;2022-07-03T08:10:10;101035.72;;;22.08;55.38
50484;BME280;36409;52.168;20.878;2022-07-03T08:12:39;101030.70;;;22.02;55.10
50484;BME280;36409;52.168;20.878;2022-07-03T08:15:09;101030.70;;;22.02;55.51
50484;BME280;36409;52.168;20.878;2022-07-03T08:17:41;101034.08;;;22.05;55.50
50484;BME280;36409;52.168;20.878;2022-07-03T08:20:11;101035.80;;;22.06;55.64
50484;BME280;36409;52.168;20.878;2022-07-03T08:22:43;101033.30;;;22.03;55.23
50484;BME280;36409;52.168;20.878;2022-07-03T08:25:21;101034.77;;;22.09;55.05
50484;BME280;36409;52.168;20.878;2022-07-03T08:27:51;101028.12;;;22.18;54.98
50484;BME280;36409;52.168;20.878;2022-07-03T08:30:40;101024.09;;;22.27;54.71
50484;BME280;36409;52.168;20.878;2022-07-03T08:33:09;101014.06;;;22.49;54.55
50484;BME280;36409;52.168;20.878;2022-07-03T08:35:40;101017.52;;;22.67;54.31
50484;BME280;36409;52.168;20.878;2022-07-03T08:38:10;101016.69;;;22.83;54.33
50484;BME280;36409;52.168;20.878;2022-07-03T08:40:40;101009.72;;;23.12;54.29
50484;BME280;36409;52.168;20.878;2022-07-03T08:43:09;101003.05;;;23.52;54.08
50484;BME280;36409;52.168;20.878;2022-07-03T08:45:39;101006.37;;;23.86;52.93
50484;BME280;36409;52.168;20.878;2022-07-03T08:48:11;101003.50;;;24.19;52.19
50484;BME280;36409;52.168;20.878;2022-07-03T08:50:46;101004.43;;;24.47;50.92
50484;BME280;36409;52.168;20.878;2022-07-03T08:53:15;101003.19;;;24.82;51.44
50484;BME280;36409;52.168;20.878;2022-07-03T08:55:45;101008.47;;;25.24;51.24
50484;BME280;36409;52.168;20.878;2022-07-03T08:58:18;100997.27;;;25.59;51.24
50484;BME280;36409;52.168;20.878;2022-07-03T09:00:50;100992.08;;;25.83;50.69
50484;BME280;36409;52.168;20.878;2022-07-03T09:03:34;100988.75;;;26.05;50.50
50484;BME280;36409;52.168;20.878;2022-07-03T09:06:09;100996.25;;;26.26;50.13
50484;BME280;36409;52.168;20.878;2022-07-03T09:08:42;100992.80;;;26.50;49.97
50484;BME280;36409;52.168;20.878;2022-07-03T09:11:16;100992.32;;;26.69;49.38
50484;BME280;36409;52.168;20.878;2022-07-03T09:13:45;100989.43;;;26.72;48.55
50484;BME280;36409;52.168;20.878;2022-07-03T09:16:17;100984.18;;;26.84;48.42
50484;BME280;36409;52.168;20.878;2022-07-03T09:18:46;100989.00;;;27.03;48.43
50484;BME280;36409;52.168;20.878;2022-07-03T09:21:17;100977.20;;;27.29;48.79
50484;BME280;36409;52.168;20.878;2022-07-03T09:23:46;100984.54;;;27.63;48.30
50484;BME280;36409;52.168;20.878;2022-07-03T09:26:18;100984.59;;;27.86;48.53
50484;BME280;36409;52.168;20.878;2022-07-03T09:28:50;100986.32;;;28.10;47.43
50484;BME280;36409;52.168;20.878;2022-07-03T09:31:20;100986.95;;;28.13;47.06
50484;BME280;36409;52.168;20.878;2022-07-03T09:34:01;100979.48;;;28.05;46.50
50484;BME280;36409;52.168;20.878;2022-07-03T09:36:41;100989.00;;;28.21;46.64
50484;BME280;36409;52.168;20.878;2022-07-03T09:39:18;100989.74;;;28.23;46.18
50484;BME280;36409;52.168;20.878;2022-07-03T09:41:59;100982.42;;;28.48;46.72
50484;BME280;36409;52.168;20.878;2022-07-03T09:44:38;100974.70;;;28.66;46.02
50484;BME280;36409;52.168;20.878;2022-07-03T09:47:12;100970.66;;;28.83;46.24
50484;BME280;36409;52.168;20.878;2022-07-03T09:49:51;100971.18;;;29.09;45.98
50484;BME280;36409;52.168;20.878;2022-07-03T09:52:36;100964.98;;;29.30;45.68
50484;BME280;36409;52.168;20.878;2022-07-03T09:55:15;100966.73;;;29.52;45.18
50484;BME280;36409;52.168;20.878;2022-07-03T09:57:46;100970.08;;;29.66;44.80
50484;BME280;36409;52.168;20.878;2022-07-03T10:00:29;100961.22;;;29.75;44.41
50484;BME280;36409;52.168;20.878;2022-07-03T10:03:01;100960.84;;;29.89;44.10
50484;BME280;36409;52.168;20.878;2022-07-03T10:05:34;100954.72;;;29.99;43.89
50484;BME280;36409;52.168;20.878;2022-07-03T10:08:06;100965.30;;;30.31;44.33
50484;BME280;36409;52.168;20.878;2022-07-03T10:10:37;100962.55;;;30.53;43.19
50484;BME280;36409;52.168;20.878;2022-07-03T10:13:07;100964.78;;;30.47;42.66
50484;BME280;36409;52.168;20.878;2022-07-03T10:15:37;100952.64;;;30.53;42.52
50484;BME280;36409;52.168;20.878;2022-07-03T10:18:08;100951.55;;;30.85;42.44
50484;BME280;36409;52.168;20.878;2022-07-03T10:20:40;100950.16;;;31.01;42.16
50484;BME280;36409;52.168;20.878;2022-07-03T10:23:15;100951.86;;;31.02;41.43
50484;BME280;36409;52.168;20.878;2022-07-03T10:25:45;100945.75;;;31.00;41.42
50484;BME280;36409;52.168;20.878;2022-07-03T10:28:17;100940.81;;;31.15;41.21
50484;BME280;36409;52.168;20.878;2022-07-03T10:30:47;100940.07;;;31.42;41.52
50484;BME280;36409;52.168;20.878;2022-07-03T10:33:16;100942.05;;;31.69;41.04
50484;BME280;36409;52.168;20.878;2022-07-03T10:35:50;100932.02;;;31.89;40.62
50484;BME280;36409;52.168;20.878;2022-07-03T10:38:32;100933.80;;;32.09;40.27
50484;BME280;36409;52.168;20.878;2022-07-03T10:41:06;100934.75;;;32.17;39.78
50484;BME280;36409;52.168;20.878;2022-07-03T10:44:02;100928.59;;;31.97;39.37
50484;BME280;36409;52.168;20.878;2022-07-03T10:46:51;100927.94;;;31.85;39.32
50484;BME280;36409;52.168;20.878;2022-07-03T10:49:32;100921.45;;;32.06;39.65
50484;BME280;36409;52.168;20.878;2022-07-03T10:52:05;100922.28;;;31.79;37.96
50484;BME280;36409;52.168;20.878;2022-07-03T10:54:38;100911.37;;;31.61;38.81
50484;BME280;36409;52.168;20.878;2022-07-03T10:57:17;100908.09;;;31.77;38.54
50484;BME280;36409;52.168;20.878;2022-07-03T10:59:59;100913.77;;;31.73;38.68
50484;BME280;36409;52.168;20.878;2022-07-03T11:02:33;100911.09;;;31.64;38.13
50484;BME280;36409;52.168;20.878;2022-07-03T11:05:22;100909.07;;;31.66;38.48
50484;BME280;36409;52.168;20.878;2022-07-03T11:08:12;100900.61;;;31.98;38.81
50484;BME280;36409;52.168;20.878;2022-07-03T11:10:42;100901.48;;;32.27;39.02
50484;BME280;36409;52.168;20.878;2022-07-03T11:13:16;100898.59;;;32.56;38.42
50484;BME280;36409;52.168;20.878;2022-07-03T11:15:51;100893.89;;;32.76;38.22
50484;BME280;36409;52.168;20.878;2022-07-03T11:18:31;100892.59;;;32.80;38.26
50484;BME280;36409;52.168;20.878;2022-07-03T11:24:17;100878.42;;;33.05;37.85
50484;BME280;36409;52.168;20.878;2022-07-03T11:27:16;100886.34;;;32.98;37.04
50484;BME280;36409;52.168;20.878;2022-07-03T11:29:52;100876.78;;;32.86;37.16
50484;BME280;36409;52.168;20.878;2022-07-03T11:32:45;100862.55;;;33.02;37.23
50484;BME280;36409;52.168;20.878;2022-07-03T11:35:50;100871.13;;;32.97;36.70
50484;BME280;36409;52.168;20.878;2022-07-03T11:38:23;100871.84;;;32.81;36.66
50484;BME280;36409;52.168;20.878;2022-07-03T11:40:54;100873.59;;;32.72;36.56
50484;BME280;36409;52.168;20.878;2022-07-03T11:43:26;100868.34;;;32.53;36.42
50484;BME280;36409;52.168;20.878;2022-07-03T11:46:00;100874.19;;;32.30;35.99
50484;BME280;36409;52.168;20.878;2022-07-03T11:48:32;100876.52;;;31.87;35.84
50484;BME280;36409;52.168;20.878;2022-07-03T11:51:02;100871.06;;;31.69;36.18
50484;BME280;36409;52.168;20.878;2022-07-03T11:53:34;100866.78;;;31.66;36.30
50484;BME280;36409;52.168;20.878;2022-07-03T11:56:04;100867.27;;;31.89;36.77
50484;BME280;36409;52.168;20.878;2022-07-03T11:58:43;100858.55;;;32.24;36.90
50484;BME280;36409;52.168;20.878;2022-07-03T12:01:28;100857.59;;;32.25;35.73
50484;BME280;36409;52.168;20.878;2022-07-03T12:04:06;100852.20;;;31.97;35.71
50484;BME280;36409;52.168;20.878;2022-07-03T12:06:47;100848.83;;;31.85;35.90
50484;BME280;36409;52.168;20.878;2022-07-03T12:09:20;100849.28;;;31.80;35.89
50484;BME280;36409;52.168;20.878;2022-07-03T12:11:57;100846.20;;;31.75;36.12
50484;BME280;36409;52.168;20.878;2022-07-03T12:14:39;100850.95;;;31.91;36.15
50484;BME280;36409;52.168;20.878;2022-07-03T12:17:10;100847.58;;;31.79;35.73
50484;BME280;36409;52.168;20.878;2022-07-03T12:19:44;100851.52;;;31.47;35.37
50484;BME280;36409;52.168;20.878;2022-07-03T12:22:22;100841.17;;;31.42;36.10
50484;BME280;36409;52.168;20.878;2022-07-03T12:25:12;100846.30;;;31.36;35.72
50484;BME280;36409;52.168;20.878;2022-07-03T12:27:43;100837.28;;;31.17;36.03
50484;BME280;36409;52.168;20.878;2022-07-03T12:30:17;100836.58;;;30.86;36.21
50484;BME280;36409;52.168;20.878;2022-07-03T12:32:54;100829.64;;;30.73;36.22
50484;BME280;36409;52.168;20.878;2022-07-03T12:35:27;100834.20;;;30.73;35.98
50484;BME280;36409;52.168;20.878;2022-07-03T12:38:00;100830.50;;;30.64;36.11
50484;BME280;36409;52.168;20.878;2022-07-03T12:40:31;100832.03;;;30.47;35.75
50484;BME280;36409;52.168;20.878;2022-07-03T12:43:03;100834.13;;;30.33;35.71
50484;BME280;36409;52.168;20.878;2022-07-03T12:45:33;100835.04;;;30.54;36.35
50484;BME280;36409;52.168;20.878;2022-07-03T12:48:06;100840.83;;;30.88;36.47
50484;BME280;36409;52.168;20.878;2022-07-03T12:50:45;100836.15;;;31.00;36.61
50484;BME280;36409;52.168;20.878;2022-07-03T12:53:32;100829.87;;;31.19;36.50
50484;BME280;36409;52.168;20.878;2022-07-03T12:56:06;100824.47;;;31.67;36.66
50484;BME280;36409;52.168;20.878;2022-07-03T12:58:39;100823.14;;;32.09;36.34
50484;BME280;36409;52.168;20.878;2022-07-03T13:01:30;100824.03;;;32.27;36.18
50484;BME280;36409;52.168;20.878;2022-07-03T13:04:04;100817.70;;;32.55;36.14
50484;BME280;36409;52.168;20.878;2022-07-03T13:06:44;100819.17;;;32.49;35.71
50484;BME280;36409;52.168;20.878;2022-07-03T13:09:14;100816.87;;;32.36;35.68
50484;BME280;36409;52.168;20.878;2022-07-03T13:11:46;100814.87;;;32.38;35.93
50484;BME280;36409;52.168;20.878;2022-07-03T13:14:17;100817.12;;;31.97;35.46